createdAt,value
2018-11-02T00:01:35.722Z,100674.51
2018-11-02T00:04:04.963Z,100673.95
2018-11-02T00:06:34.604Z,100676.80
2018-11-02T00:09:04.067Z,100674.96
2018-11-02T00:11:33.314Z,100685.52
2018-11-02T00:14:02.547Z,100688.13
2018-11-02T00:16:31.944Z,100691.00
2018-11-02T00:19:01.144Z,100692.71
2018-11-02T00:21:30.383Z,100698.74
2018-11-02T00:23:59.629Z,100708.08
2018-11-02T00:26:28.963Z,100702.42
2018-11-02T00:28:58.201Z,100711.56
2018-11-02T00:31:27.545Z,100715.48
2018-11-02T00:33:56.826Z,100719.64
2018-11-02T00:36:26.054Z,100722.41
2018-11-02T00:38:55.307Z,100719.35
2018-11-02T00:41:26.575Z,100724.73
2018-11-02T00:43:56.155Z,100720.47
2018-11-02T00:46:25.286Z,100725.08
2018-11-02T00:48:54.553Z,100721.45
2018-11-02T00:51:23.781Z,100717.94
2018-11-02T00:53:52.996Z,100719.16
2018-11-02T00:56:22.352Z,100724.07
2018-11-02T00:58:51.696Z,100722.47
2018-11-02T01:01:21.089Z,100716.20
2018-11-02T01:03:50.387Z,100723.24
2018-11-02T01:06:19.709Z,100730.22
2018-11-02T01:08:49.454Z,100729.92
2018-11-02T01:11:18.719Z,100728.04
2018-11-02T01:13:48.001Z,100743.47
2018-11-02T01:16:17.230Z,100741.17
2018-11-02T01:18:46.463Z,100737.55
2018-11-02T01:21:16.772Z,100732.43
2018-11-02T01:23:45.976Z,100725.02
2018-11-02T01:26:15.203Z,100736.43
2018-11-02T01:28:44.696Z,100742.98
2018-11-02T01:31:13.894Z,100749.55
2018-11-02T01:33:43.178Z,100750.40
2018-11-02T01:36:12.510Z,100753.75
2018-11-02T01:38:41.737Z,100757.00
2018-11-02T01:41:11.351Z,100761.21
2018-11-02T01:43:40.651Z,100764.25
2018-11-02T01:46:09.846Z,100769.66
2018-11-02T01:48:39.090Z,100767.83
2018-11-02T01:51:08.465Z,100766.69
2018-11-02T01:53:37.694Z,100758.87
2018-11-02T01:56:06.925Z,100748.67
2018-11-02T01:58:36.208Z,100742.28
2018-11-02T02:01:05.655Z,100752.46
2018-11-02T02:03:34.875Z,100756.73
2018-11-02T02:06:07.914Z,100743.80
2018-11-02T02:08:37.145Z,100751.22
2018-11-02T02:11:06.537Z,100757.88
2018-11-02T02:13:35.851Z,100757.08
2018-11-02T02:16:05.260Z,100757.51
2018-11-02T02:18:34.598Z,100740.55
2018-11-02T02:21:03.893Z,100750.84
2018-11-02T02:23:33.245Z,100745.51
2018-11-02T02:26:02.562Z,100752.55
2018-11-02T02:28:32.905Z,100744.55
2018-11-02T02:31:02.113Z,100750.48
2018-11-02T02:33:31.346Z,100745.37
2018-11-02T02:36:04.526Z,100749.55
2018-11-02T02:38:33.746Z,100755.46
2018-11-02T02:41:03.114Z,100759.67
2018-11-02T02:43:32.367Z,100757.48
2018-11-02T02:46:01.615Z,100750.45
2018-11-02T02:48:31.293Z,100754.34
2018-11-02T02:51:00.519Z,100753.48
2018-11-02T02:53:29.775Z,100760.31
2018-11-02T02:55:59.185Z,100764.58
2018-11-02T02:58:28.444Z,100770.69
2018-11-02T03:00:57.668Z,100767.81
2018-11-02T03:03:26.985Z,100769.73
2018-11-02T03:05:56.231Z,100761.31
2018-11-02T03:08:25.450Z,100770.64
2018-11-02T03:10:54.717Z,100771.50
2018-11-02T03:13:23.914Z,100773.40
2018-11-02T03:15:53.342Z,100774.06
2018-11-02T03:18:22.645Z,100773.13
2018-11-02T03:20:51.821Z,100766.15
2018-11-02T03:23:21.042Z,100759.86
2018-11-02T03:25:50.252Z,100774.04
2018-11-02T03:28:19.525Z,100780.91
2018-11-02T03:30:48.833Z,100782.77
2018-11-02T03:33:18.070Z,100785.44
2018-11-02T03:35:47.396Z,100792.19
2018-11-02T03:38:16.618Z,100792.56
2018-11-02T03:40:45.858Z,100793.95
2018-11-02T03:43:15.114Z,100782.69
2018-11-02T03:45:44.470Z,100790.41
2018-11-02T03:48:13.697Z,100796.75
2018-11-02T03:50:43.350Z,100791.90
2018-11-02T03:53:12.713Z,100797.77
2018-11-02T03:55:43.092Z,100792.35
2018-11-02T03:58:12.319Z,100800.36
2018-11-02T04:00:41.542Z,100806.73
2018-11-02T04:03:10.846Z,100812.17
2018-11-02T04:05:40.761Z,100815.80
2018-11-02T04:08:10.214Z,100807.32
2018-11-02T04:10:39.434Z,100813.52
2018-11-02T04:13:09.273Z,100813.14
2018-11-02T04:15:38.635Z,100811.59
2018-11-02T04:18:08.538Z,100810.63
2018-11-02T04:20:39.531Z,100815.52
2018-11-02T04:23:08.845Z,100808.77
2018-11-02T04:25:38.101Z,100813.36
2018-11-02T04:28:07.739Z,100808.88
2018-11-02T04:30:36.952Z,100819.66
2018-11-02T04:33:06.243Z,100819.66
2018-11-02T04:35:35.874Z,100821.14
2018-11-02T04:38:05.373Z,100816.17
2018-11-02T04:40:34.784Z,100811.80
2018-11-02T04:43:04.571Z,100811.65
2018-11-02T04:45:39.738Z,100812.17
2018-11-02T04:48:12.488Z,100805.50
2018-11-02T04:50:42.043Z,100796.49
2018-11-02T04:53:11.261Z,100792.16
2018-11-02T04:55:42.462Z,100794.35
2018-11-02T04:58:11.680Z,100804.25
2018-11-02T05:00:40.929Z,100814.81
2018-11-02T05:03:10.214Z,100810.17
2018-11-02T05:05:39.509Z,100809.48
2018-11-02T05:08:08.779Z,100816.16
2018-11-02T05:10:38.102Z,100814.07
2018-11-02T05:13:07.320Z,100823.41
2018-11-02T05:15:36.582Z,100826.98
2018-11-02T05:18:05.961Z,100843.91
2018-11-02T05:20:35.189Z,100847.83
2018-11-02T05:23:04.702Z,100841.53
2018-11-02T05:25:34.082Z,100838.75
2018-11-02T05:28:03.418Z,100843.08
2018-11-02T05:30:32.610Z,100847.81
2018-11-02T05:33:02.244Z,100851.45
2018-11-02T05:35:31.496Z,100858.86
2018-11-02T05:38:00.722Z,100855.45
2018-11-02T05:40:30.017Z,100864.64
2018-11-02T05:43:00.370Z,100871.34
2018-11-02T05:45:29.581Z,100870.49
2018-11-02T05:47:58.862Z,100874.87
2018-11-02T05:50:28.074Z,100885.02
2018-11-02T05:52:57.405Z,100886.41
2018-11-02T05:55:26.738Z,100887.45
2018-11-02T05:57:55.999Z,100893.17
2018-11-02T06:00:25.237Z,100900.70
2018-11-02T06:02:54.492Z,100913.94
2018-11-02T06:05:23.835Z,100912.97
2018-11-02T06:07:53.224Z,100923.91
2018-11-02T06:10:22.371Z,100925.34
2018-11-02T06:12:51.623Z,100924.70
2018-11-02T06:15:20.922Z,100937.45
2018-11-02T06:17:50.326Z,100932.77
2018-11-02T06:20:19.646Z,100946.27
2018-11-02T06:22:48.858Z,100962.11
2018-11-02T06:25:18.190Z,100946.48
2018-11-02T06:27:47.405Z,100955.83
2018-11-02T06:30:16.678Z,100964.48
2018-11-02T06:32:46.010Z,100957.42
2018-11-02T06:35:16.287Z,100967.14
2018-11-02T06:37:45.560Z,100958.05
2018-11-02T06:40:14.809Z,100955.01
2018-11-02T06:42:44.058Z,100949.48
2018-11-02T06:45:13.353Z,100950.98
2018-11-02T06:47:42.668Z,100970.05
2018-11-02T06:50:11.951Z,100974.05
2018-11-02T06:52:41.262Z,100980.52
2018-11-02T06:55:10.738Z,100992.53
2018-11-02T06:57:40.032Z,100986.91
2018-11-02T07:00:12.244Z,100997.27
2018-11-02T07:02:41.617Z,101001.57
2018-11-02T07:05:10.950Z,100991.53
2018-11-02T07:07:40.473Z,101007.23
2018-11-02T07:10:10.258Z,101010.09
2018-11-02T07:12:39.482Z,101011.75
2018-11-02T07:15:08.813Z,101013.78
2018-11-02T07:17:38.051Z,101021.05
2018-11-02T07:20:07.538Z,101018.97
2018-11-02T07:22:36.931Z,101032.75
2018-11-02T07:25:07.257Z,101024.17
2018-11-02T07:27:36.467Z,101034.78
2018-11-02T07:30:07.107Z,101033.44
2018-11-02T07:32:36.482Z,101036.48
2018-11-02T07:35:06.244Z,101050.59
2018-11-02T07:37:36.704Z,101044.48
2018-11-02T07:40:07.586Z,101043.30
2018-11-02T07:42:36.816Z,101061.42
2018-11-02T07:45:07.014Z,101056.27
2018-11-02T07:47:36.351Z,101060.76
2018-11-02T07:50:07.335Z,101058.99
2018-11-02T07:52:37.465Z,101057.52
2018-11-02T07:55:08.587Z,101066.63
2018-11-02T07:57:38.037Z,101069.48
2018-11-02T08:00:10.892Z,101067.83
2018-11-02T08:02:42.086Z,101072.09
2018-11-02T08:05:11.670Z,101070.34
2018-11-02T08:07:40.961Z,101069.52
2018-11-02T08:10:10.431Z,101073.42
2018-11-02T08:12:39.771Z,101069.94
2018-11-02T08:15:10.626Z,101069.38
2018-11-02T08:17:40.953Z,101073.17
2018-11-02T08:20:11.647Z,101074.88
2018-11-02T08:22:41.514Z,101070.72
2018-11-02T08:25:11.489Z,101077.29
2018-11-02T08:27:41.203Z,101074.10
2018-11-02T08:30:11.432Z,101071.13
2018-11-02T08:32:40.816Z,101078.27
2018-11-02T08:35:12.147Z,101082.32
2018-11-02T08:37:41.867Z,101078.72
2018-11-02T08:40:12.626Z,101086.14
2018-11-02T08:42:42.565Z,101066.83
2018-11-02T08:45:12.129Z,101065.60
2018-11-02T08:47:41.386Z,101073.55
2018-11-02T08:50:11.370Z,101074.63
2018-11-02T08:52:40.587Z,101069.84
2018-11-02T08:55:09.803Z,101076.71
2018-11-02T08:57:40.181Z,101091.90
2018-11-02T09:00:11.174Z,101086.29
2018-11-02T09:02:40.557Z,101079.64
2018-11-02T09:05:10.238Z,101091.00
2018-11-02T09:07:39.518Z,101083.50
2018-11-02T09:10:10.692Z,101093.09
2018-11-02T09:12:40.445Z,101107.16
2018-11-02T09:15:09.805Z,101101.84
2018-11-02T09:17:39.022Z,101115.95
2018-11-02T09:20:08.416Z,101111.21
2018-11-02T09:22:37.706Z,101124.22
2018-11-02T09:25:08.642Z,101130.64
2018-11-02T09:27:38.065Z,101139.24
2018-11-02T09:30:12.957Z,101128.37
2018-11-02T09:32:42.251Z,101144.48
2018-11-02T09:35:12.089Z,101142.13
2018-11-02T09:37:41.686Z,101149.83
2018-11-02T09:40:11.816Z,101143.93
2018-11-02T09:42:41.443Z,101148.42
2018-11-02T09:45:12.896Z,101143.13
2018-11-02T09:47:42.412Z,101163.34
2018-11-02T09:50:12.137Z,101168.31
2018-11-02T09:52:41.509Z,101170.61
2018-11-02T09:55:12.916Z,101183.58
2018-11-02T09:57:42.812Z,101179.16
2018-11-02T10:00:12.981Z,101191.59
2018-11-02T10:02:42.311Z,101199.77
2018-11-02T10:05:13.108Z,101201.38
2018-11-02T10:07:42.982Z,101203.77
2018-11-02T10:10:12.946Z,101204.69
2018-11-02T10:12:42.246Z,101206.76
2018-11-02T10:15:13.370Z,101207.55
2018-11-02T10:17:42.648Z,101220.71
2018-11-02T10:20:12.288Z,101225.69
2018-11-02T10:22:41.719Z,101230.45
2018-11-02T10:25:11.836Z,101234.30
2018-11-02T10:27:42.690Z,101244.41
2018-11-02T10:30:14.082Z,101239.38
2018-11-02T10:32:46.971Z,101251.69
2018-11-02T10:35:16.360Z,101259.33
2018-11-02T10:37:47.242Z,101273.34
2018-11-02T10:40:17.818Z,101277.84
2018-11-02T10:42:52.263Z,101272.70
2018-11-02T10:45:26.411Z,101278.03
2018-11-02T10:47:55.668Z,101271.31
2018-11-02T10:50:24.905Z,101283.06
2018-11-02T10:52:54.373Z,101281.58
2018-11-02T10:55:23.685Z,101290.38
2018-11-02T10:57:52.904Z,101289.44
2018-11-02T11:00:27.506Z,101299.77
2018-11-02T11:02:56.813Z,101296.34
2018-11-02T11:05:26.103Z,101306.83
2018-11-02T11:07:55.336Z,101314.94
2018-11-02T11:10:24.610Z,101309.84
2018-11-02T11:12:54.120Z,101327.42
2018-11-02T11:15:23.233Z,101339.27
2018-11-02T11:17:53.617Z,101339.64
2018-11-02T11:20:22.942Z,101343.48
2018-11-02T11:22:52.179Z,101341.94
2018-11-02T11:25:21.414Z,101347.66
2018-11-02T11:27:50.756Z,101357.23
2018-11-02T11:30:20.742Z,101357.02
2018-11-02T11:32:51.125Z,101373.19
2018-11-02T11:35:20.582Z,101385.61
2018-11-02T11:37:49.804Z,101392.47
2018-11-02T11:40:20.499Z,101398.98
2018-11-02T11:42:49.882Z,101403.30
2018-11-02T11:45:19.799Z,101411.12
2018-11-02T11:47:49.016Z,101418.35
2018-11-02T11:50:23.395Z,101431.73
2018-11-02T11:52:54.514Z,101433.28
2018-11-02T11:55:27.163Z,101436.91
2018-11-02T11:57:56.373Z,101438.05
2018-11-02T12:00:25.690Z,101448.20
2018-11-02T12:02:55.043Z,101441.69
2018-11-02T12:05:24.874Z,101450.47
2018-11-02T12:07:54.176Z,101450.25
2018-11-02T12:10:25.290Z,101454.33
2018-11-02T12:12:54.770Z,101461.64
2018-11-02T12:15:24.330Z,101461.27
2018-11-02T12:17:53.732Z,101477.44
2018-11-02T12:20:26.515Z,101472.08
2018-11-02T12:22:58.349Z,101473.31
2018-11-02T12:25:27.627Z,101484.34
2018-11-02T12:27:56.920Z,101477.66
2018-11-02T12:31:29.508Z,101480.59
2018-11-02T12:33:58.876Z,101489.81
2018-11-02T12:36:35.035Z,101496.30
2018-11-02T12:39:05.398Z,101498.80
2018-11-02T12:41:34.851Z,101501.27
2018-11-02T12:44:04.050Z,101506.25
2018-11-02T12:46:33.285Z,101512.84
2018-11-02T12:49:02.884Z,101527.29
2018-11-02T12:51:31.960Z,101523.82
2018-11-02T12:54:01.170Z,101529.66
2018-11-02T12:56:30.498Z,101535.97
2018-11-02T12:59:00.126Z,101541.81
2018-11-02T13:01:29.386Z,101545.93
2018-11-02T13:03:58.716Z,101532.64
2018-11-02T13:06:29.627Z,101558.94
2018-11-02T13:08:58.995Z,101560.55
2018-11-02T13:11:28.231Z,101567.83
2018-11-02T13:13:58.110Z,101571.06
2018-11-02T13:16:27.341Z,101562.09
2018-11-02T13:18:56.728Z,101569.37
2018-11-02T13:21:26.027Z,101578.16
2018-11-02T13:23:55.228Z,101581.11
2018-11-02T13:26:25.531Z,101601.39
2018-11-02T13:28:54.703Z,101594.03
2018-11-02T13:31:23.959Z,101590.20
2018-11-02T13:33:53.314Z,101593.73
2018-11-02T13:36:22.680Z,101604.44
2018-11-02T13:38:51.798Z,101610.27
2018-11-02T13:41:21.111Z,101597.95
2018-11-02T13:43:50.530Z,101606.05
2018-11-02T13:46:21.030Z,101615.81
2018-11-02T13:48:50.886Z,101620.31
2018-11-02T13:51:20.147Z,101628.44
2018-11-02T13:53:50.767Z,101620.95
2018-11-02T13:56:20.240Z,101624.92
2018-11-02T13:58:49.534Z,101639.12
2018-11-02T14:01:18.886Z,101643.81
2018-11-02T14:03:48.266Z,101654.51
2018-11-02T14:06:17.528Z,101659.66
2018-11-02T14:08:46.891Z,101662.34
2018-11-02T14:11:16.221Z,101662.91
2018-11-02T14:13:45.458Z,101669.31
2018-11-02T14:16:14.648Z,101667.41
2018-11-02T14:18:44.070Z,101672.66
2018-11-02T14:21:13.384Z,101673.23
2018-11-02T14:23:42.631Z,101680.11
2018-11-02T14:26:12.137Z,101683.61
2018-11-02T14:28:41.437Z,101683.85
2018-11-02T14:31:10.674Z,101701.03
2018-11-02T14:33:40.034Z,101699.74
2018-11-02T14:36:09.290Z,101709.78
2018-11-02T14:38:38.525Z,101715.89
2018-11-02T14:41:08.039Z,101732.12
2018-11-02T14:43:37.163Z,101730.44
2018-11-02T14:46:07.750Z,101733.97
2018-11-02T14:48:37.095Z,101739.11
2018-11-02T14:51:08.415Z,101750.84
2018-11-02T14:53:44.012Z,101763.05
2018-11-02T14:56:14.061Z,101764.77
2018-11-02T14:58:43.326Z,101772.52
2018-11-02T15:01:12.665Z,101778.30
2018-11-02T15:03:41.942Z,101779.27
2018-11-02T15:06:11.190Z,101776.51
2018-11-02T15:08:42.572Z,101775.90
2018-11-02T15:11:11.996Z,101777.11
2018-11-02T15:13:42.855Z,101781.80
2018-11-02T15:16:12.053Z,101787.86
2018-11-02T15:18:43.108Z,101789.75
2018-11-02T15:21:12.498Z,101791.31
2018-11-02T15:23:42.387Z,101804.09
2018-11-02T15:26:18.787Z,101808.36
2018-11-02T15:28:49.648Z,101818.16
2018-11-02T15:31:19.056Z,101808.09
2018-11-02T15:33:48.348Z,101816.42
2018-11-02T15:36:21.156Z,101831.19
2018-11-02T15:38:50.421Z,101825.03
2018-11-02T15:41:19.643Z,101840.89
2018-11-02T15:43:48.909Z,101846.78
2018-11-02T15:46:18.176Z,101844.03
2018-11-02T15:48:47.438Z,101851.09
2018-11-02T15:51:16.740Z,101857.29
2018-11-02T15:53:45.933Z,101858.52
2018-11-02T15:56:15.195Z,101861.66
2018-11-02T15:58:44.433Z,101869.58
2018-11-02T16:01:22.313Z,101886.91
2018-11-02T16:03:51.650Z,101891.31
2018-11-02T16:06:21.029Z,101894.24
2018-11-02T16:08:51.327Z,101902.80
2018-11-02T16:11:20.665Z,101909.30
2018-11-02T16:13:49.957Z,101917.86
2018-11-02T16:16:19.568Z,101919.31
2018-11-02T16:18:49.043Z,101921.59
2018-11-02T16:21:18.353Z,101932.26
2018-11-02T16:23:47.637Z,101934.45
2018-11-02T16:26:18.122Z,101944.02
2018-11-02T16:28:47.495Z,101944.97
2018-11-02T16:31:16.870Z,101950.92
2018-11-02T16:33:47.292Z,101954.19
2018-11-02T16:36:16.549Z,101964.77
2018-11-02T16:38:46.957Z,101968.77
2018-11-02T16:41:16.226Z,101973.13
2018-11-02T16:43:45.576Z,101980.66
2018-11-02T16:46:14.723Z,101975.64
2018-11-02T16:48:44.026Z,101986.70
2018-11-02T16:51:13.335Z,101984.27
2018-11-02T16:53:42.546Z,101987.80
2018-11-02T16:56:11.845Z,101987.48
2018-11-02T16:58:41.122Z,101983.88
2018-11-02T17:01:10.356Z,101989.14
2018-11-02T17:03:39.604Z,101991.95
2018-11-02T17:06:08.944Z,101993.52
2018-11-02T17:08:38.034Z,101994.58
2018-11-02T17:11:07.257Z,101988.85
2018-11-02T17:13:36.489Z,101990.88
2018-11-02T17:16:06.149Z,101990.68
2018-11-02T17:18:36.154Z,101984.63
2018-11-02T17:21:05.543Z,101983.45
2018-11-02T17:23:35.221Z,101975.17
2018-11-02T17:26:05.779Z,101975.47
2018-11-02T17:28:35.003Z,101978.40
2018-11-02T17:31:04.232Z,101975.66
2018-11-02T17:33:33.600Z,101978.16
2018-11-02T17:36:02.904Z,101986.02
2018-11-02T17:38:32.181Z,101979.61
2018-11-02T17:41:01.455Z,101983.61
2018-11-02T17:43:30.758Z,101988.36
2018-11-02T17:46:00.100Z,101990.16
2018-11-02T17:48:29.806Z,101991.99
2018-11-02T17:50:59.133Z,101998.66
2018-11-02T17:53:28.561Z,102000.41
2018-11-02T17:55:57.903Z,101996.81
2018-11-02T17:58:28.263Z,101998.94
2018-11-02T18:00:57.960Z,102007.33
2018-11-02T18:03:27.235Z,102008.41
2018-11-02T18:05:56.891Z,102001.06
2018-11-02T18:08:26.352Z,101999.33
2018-11-02T18:10:55.528Z,102002.67
2018-11-02T18:13:24.942Z,102002.84
2018-11-02T18:15:54.211Z,102005.09
2018-11-02T18:18:23.534Z,102006.33
2018-11-02T18:20:53.481Z,102011.50
2018-11-02T18:23:25.397Z,102011.63
2018-11-02T18:26:23.017Z,102006.84
2018-11-02T18:43:01.991Z,102062.34
2018-11-02T18:45:32.319Z,102068.13
2018-11-02T18:48:01.745Z,102079.33
2018-11-02T18:50:32.157Z,102081.13
2018-11-02T18:53:01.385Z,102079.05
2018-11-02T18:55:30.920Z,102077.67
2018-11-02T18:58:00.367Z,102085.64
2018-11-02T19:00:29.746Z,102091.70
2018-11-02T19:02:59.042Z,102092.57
2018-11-02T19:05:28.479Z,102098.36
2018-11-02T19:07:58.841Z,102093.22
2018-11-02T19:10:28.097Z,102099.07
2018-11-02T19:12:57.548Z,102103.67
2018-11-02T19:21:53.579Z,102113.23
2018-11-02T19:24:22.816Z,102113.11
2018-11-02T19:26:52.190Z,102118.48
2018-11-02T19:29:22.529Z,102108.80
2018-11-02T19:31:52.837Z,102114.13
2018-11-02T19:34:22.181Z,102123.34
2018-11-02T19:36:51.326Z,102120.22
2018-11-02T19:39:20.649Z,102133.98
2018-11-02T19:41:51.022Z,102134.59
2018-11-02T19:44:20.370Z,102130.45
2018-11-02T19:46:49.573Z,102133.45
2018-11-02T19:49:18.849Z,102137.03
2018-11-02T19:51:48.157Z,102151.31
2018-11-02T19:54:17.466Z,102157.50
2018-11-02T19:56:46.751Z,102158.84
2018-11-02T19:59:16.293Z,102162.25
2018-11-02T20:01:46.551Z,102164.27
2018-11-02T20:04:15.879Z,102174.24
2018-11-02T20:06:45.166Z,102184.09
2018-11-02T20:09:14.850Z,102189.73
2018-11-02T20:11:44.288Z,102189.41
2018-11-02T20:14:14.570Z,102191.88
2018-11-02T20:16:43.923Z,102201.52
2018-11-02T20:19:14.434Z,102206.84
2018-11-02T20:21:49.620Z,102209.63
2018-11-02T20:24:19.936Z,102217.25
2018-11-02T20:26:51.090Z,102218.23
2018-11-02T20:29:20.281Z,102227.36
2018-11-02T20:31:49.686Z,102218.05
2018-11-02T20:34:19.044Z,102225.84
2018-11-02T20:36:48.337Z,102230.64
2018-11-02T20:39:17.700Z,102241.28
2018-11-02T20:41:46.984Z,102242.30
2018-11-02T20:44:16.213Z,102244.74
2018-11-02T20:46:45.453Z,102245.89
2018-11-02T20:49:15.808Z,102245.45
2018-11-02T20:51:45.160Z,102250.47
2018-11-02T20:54:14.514Z,102247.13
2018-11-02T20:56:43.805Z,102252.72
2018-11-02T20:59:13.061Z,102247.75
2018-11-02T21:01:42.294Z,102247.34
2018-11-02T21:04:11.540Z,102253.19
2018-11-02T21:06:40.907Z,102257.91
2018-11-02T21:09:12.123Z,102257.86
2018-11-02T21:11:41.463Z,102262.43
2018-11-02T21:14:10.807Z,102261.97
2018-11-02T21:16:39.845Z,102265.09
2018-11-02T21:19:09.082Z,102266.22
2018-11-02T21:21:38.546Z,102263.10
2018-11-02T21:24:07.851Z,102259.53
2018-11-02T21:26:37.104Z,102258.72
2018-11-02T21:29:06.330Z,102260.45
2018-11-02T21:31:35.514Z,102259.66
2018-11-02T21:34:04.909Z,102267.87
2018-11-02T21:36:34.176Z,102265.22
2018-11-02T21:39:04.886Z,102259.51
2018-11-02T21:41:34.141Z,102265.30
2018-11-02T21:44:03.449Z,102263.56
2018-11-02T21:46:35.583Z,102257.64
2018-11-02T21:49:04.834Z,102261.98
2018-11-02T21:51:34.187Z,102256.62
2018-11-02T21:54:04.319Z,102260.91
2018-11-02T21:56:33.585Z,102266.27
2018-11-02T21:59:02.718Z,102264.81
2018-11-02T22:01:32.004Z,102265.67
2018-11-02T22:04:02.281Z,102272.95
2018-11-02T22:06:32.574Z,102268.88
2018-11-02T22:09:01.974Z,102275.61
2018-11-02T22:11:31.301Z,102275.80
2018-11-02T22:14:00.565Z,102271.25
2018-11-02T22:16:29.886Z,102267.37
2018-11-02T22:18:59.079Z,102272.38
2018-11-02T22:21:28.425Z,102266.05
2018-11-02T22:23:59.695Z,102267.47
2018-11-02T22:26:28.974Z,102270.20
2018-11-02T22:28:58.718Z,102276.30
2018-11-02T22:31:28.075Z,102281.48
2018-11-02T22:33:57.515Z,102282.15
2018-11-02T22:36:26.841Z,102284.12
2018-11-02T22:38:56.102Z,102282.57
2018-11-02T22:41:25.354Z,102290.78
2018-11-02T22:43:54.882Z,102291.25
2018-11-02T22:46:25.184Z,102300.13
2018-11-02T22:48:54.484Z,102294.37
2018-11-02T22:51:23.716Z,102298.98
2018-11-02T22:53:53.116Z,102302.05
2018-11-02T22:56:23.434Z,102304.70
2018-11-02T22:58:53.729Z,102311.58
2018-11-02T23:01:26.917Z,102310.86
2018-11-02T23:03:57.778Z,102315.66
2018-11-02T23:06:27.221Z,102321.95
2018-11-02T23:08:56.564Z,102315.77
2018-11-02T23:11:25.742Z,102315.31
2018-11-02T23:13:56.006Z,102323.21
2018-11-02T23:16:25.282Z,102325.20
2018-11-02T23:18:54.490Z,102325.14
2018-11-02T23:21:23.725Z,102321.39
2018-11-02T23:23:52.951Z,102317.84
2018-11-02T23:26:22.193Z,102316.93
2018-11-02T23:28:51.399Z,102325.48
2018-11-02T23:31:20.697Z,102327.47
2018-11-02T23:33:49.956Z,102323.49
2018-11-02T23:36:19.146Z,102327.69
2018-11-02T23:38:48.451Z,102335.42
2018-11-02T23:41:17.662Z,102335.98
2018-11-02T23:43:46.958Z,102333.56
2018-11-02T23:46:16.344Z,102333.57
2018-11-02T23:48:45.532Z,102333.10
2018-11-02T23:51:14.736Z,102331.95
2018-11-02T23:53:44.104Z,102330.12
2018-11-02T23:56:13.269Z,102328.70
2018-11-02T23:58:42.498Z,102331.09
